KBTP/BTP METAR and TAF weather

Enter ICAO airport designator
Station Type Date Time Source
KBTP METAR 2021/07/29 18:31 UTC NOAA

KBTP 291831Z AUTO 23011G17KT 10SM BKN017 BKN023 26/22 A2988 RMK AO2


Station Type Date Time Source
KBTP Decoded METAR 2021/07/29 18:31 UTC NOAA

Butler, Butler County Airport/K W Scholter Field, PA, United States (KBTP) 40-47N 079-57W
Jul 29, 2021 - 02:31 PM EDT / 2021.07.29 1831 UTC
Wind: from the SW (230 degrees) at 13 MPH (11 KT) gusting to 20 MPH (17 KT):0
Visibility: 10 mile(s):0
Sky conditions: mostly cloudy
Temperature: 78 F (26 C)
Dew Point: 71 F (22 C)
Relative Humidity: 78%
Pressure (altimeter): 29.88 in. Hg (1011 hPa)
ob: KBTP 291831Z AUTO 23011G17KT 10SM BKN017 BKN023 26/22 A2988 RMK AO2
cycle: 18

Station Type Date Time Source
KBTP TAF UTC NOAA

Error!

Example: see airport list